createdAt,value
2017-05-17T00:00:22.381Z,1024.54
2017-05-17T00:01:03.732Z,1024.51
2017-05-17T00:01:44.224Z,1024.5
2017-05-17T00:02:25.611Z,1024.49
2017-05-17T00:03:06.934Z,1024.51
2017-05-17T00:03:47.530Z,1024.45
2017-05-17T00:04:28.032Z,1024.49
2017-05-17T00:05:08.485Z,1024.51
2017-05-17T00:05:48.937Z,1024.46
2017-05-17T00:06:29.406Z,1024.47
2017-05-17T00:07:09.885Z,1024.47
2017-05-17T00:07:50.375Z,1024.42
2017-05-17T00:08:30.872Z,1024.44
2017-05-17T00:09:11.381Z,1024.43
2017-05-17T00:09:51.860Z,1024.41
2017-05-17T00:10:32.341Z,1024.44
2017-05-17T00:11:12.863Z,1024.43
2017-05-17T00:11:53.358Z,1024.42
2017-05-17T00:12:33.839Z,1024.44
2017-05-17T00:13:14.286Z,1024.46
2017-05-17T00:13:55.434Z,1024.44
2017-05-17T00:14:35.940Z,1024.44
2017-05-17T00:15:16.480Z,1024.41
2017-05-17T00:15:56.975Z,1024.42
2017-05-17T00:16:37.473Z,1024.48
2017-05-17T00:17:17.972Z,1024.46
2017-05-17T00:17:58.456Z,1024.45
2017-05-17T00:18:38.943Z,1024.45
2017-05-17T00:19:19.435Z,1024.45
2017-05-17T00:19:59.893Z,1024.43
2017-05-17T00:20:40.377Z,1024.5
2017-05-17T00:21:20.902Z,1024.45
2017-05-17T00:22:01.347Z,1024.45
2017-05-17T00:22:41.799Z,1024.48
2017-05-17T00:23:22.329Z,1024.43
2017-05-17T00:24:02.774Z,1024.46
2017-05-17T00:24:43.249Z,1024.45
2017-05-17T00:25:23.721Z,1024.48
2017-05-17T00:26:04.222Z,1024.45
2017-05-17T00:26:44.713Z,1024.47
2017-05-17T00:27:25.234Z,1024.43
2017-05-17T00:28:05.713Z,1024.46
2017-05-17T00:28:46.231Z,1024.45
2017-05-17T00:29:26.748Z,1024.46
2017-05-17T00:30:07.242Z,1024.43
2017-05-17T00:30:47.745Z,1024.42
2017-05-17T00:31:28.164Z,1024.42
2017-05-17T00:32:08.648Z,1024.44
2017-05-17T00:32:49.138Z,1024.41
2017-05-17T00:33:29.716Z,1024.4
2017-05-17T00:34:10.231Z,1024.43
2017-05-17T00:34:50.681Z,1024.41
2017-05-17T00:35:31.164Z,1024.4
2017-05-17T00:36:11.741Z,1024.39
2017-05-17T00:36:52.250Z,1024.45
2017-05-17T00:37:32.802Z,1024.37
2017-05-17T00:38:13.313Z,1024.38
2017-05-17T00:38:53.827Z,1024.39
2017-05-17T00:39:34.325Z,1024.38
2017-05-17T00:40:14.773Z,1024.41
2017-05-17T00:40:55.273Z,1024.42
2017-05-17T00:41:35.847Z,1024.37
2017-05-17T00:42:16.296Z,1024.37
2017-05-17T00:42:56.758Z,1024.35
2017-05-17T00:43:37.217Z,1024.32
2017-05-17T00:44:17.710Z,1024.35
2017-05-17T00:44:58.267Z,1024.32
2017-05-17T00:45:38.771Z,1024.35
2017-05-17T00:46:19.220Z,1024.33
2017-05-17T00:46:59.733Z,1024.29
2017-05-17T00:47:40.195Z,1024.33
2017-05-17T00:48:20.705Z,1024.33
2017-05-17T00:49:01.157Z,1024.31
2017-05-17T00:49:41.685Z,1024.32
2017-05-17T00:50:22.158Z,1024.31
2017-05-17T00:51:03.528Z,1024.3
2017-05-17T00:51:43.144Z,1024.29
2017-05-17T00:52:23.599Z,1024.28
2017-05-17T00:53:04.093Z,1024.29
2017-05-17T00:53:44.569Z,1024.25
2017-05-17T00:54:25.092Z,1024.26
2017-05-17T00:55:05.558Z,1024.25
2017-05-17T00:55:46.068Z,1024.26
2017-05-17T00:56:26.565Z,1024.27
2017-05-17T00:57:07.033Z,1024.25
2017-05-17T00:57:47.526Z,1024.26
2017-05-17T00:58:27.997Z,1024.23
2017-05-17T00:59:08.538Z,1024.26
2017-05-17T00:59:49.020Z,1024.24
2017-05-17T01:00:29.532Z,1024.28
2017-05-17T01:01:10.000Z,1024.25
2017-05-17T01:01:50.475Z,1024.21
2017-05-17T01:02:30.998Z,1024.27
2017-05-17T01:03:11.416Z,1024.27
2017-05-17T01:03:51.937Z,1024.28
2017-05-17T01:04:32.605Z,1024.24
2017-05-17T01:05:13.086Z,1024.28
2017-05-17T01:05:53.571Z,1024.27
2017-05-17T01:06:34.063Z,1024.23
2017-05-17T01:07:14.515Z,1024.25
2017-05-17T01:07:55.038Z,1024.26
2017-05-17T01:08:35.531Z,1024.26
2017-05-17T01:09:16.003Z,1024.21
2017-05-17T01:09:56.554Z,1024.27
2017-05-17T01:10:36.958Z,1024.26
2017-05-17T01:11:17.485Z,1024.2
2017-05-17T01:11:57.942Z,1024.25
2017-05-17T01:12:38.439Z,1024.27
2017-05-17T01:13:18.887Z,1024.24
2017-05-17T01:13:59.399Z,1024.22
2017-05-17T01:14:39.908Z,1024.25
2017-05-17T01:15:20.453Z,1024.22
2017-05-17T01:16:00.931Z,1024.21
2017-05-17T01:16:41.422Z,1024.22
2017-05-17T01:17:21.964Z,1024.2
2017-05-17T01:18:03.154Z,1024.23
2017-05-17T01:18:43.664Z,1024.24
2017-05-17T01:19:24.169Z,1024.22
2017-05-17T01:20:04.603Z,1024.22
2017-05-17T01:20:45.100Z,1024.2
2017-05-17T01:21:25.595Z,1024.22
2017-05-17T01:22:06.108Z,1024.2
2017-05-17T01:22:46.593Z,1024.21
2017-05-17T01:23:27.179Z,1024.23
2017-05-17T01:24:07.687Z,1024.19
2017-05-17T01:24:48.248Z,1024.19
2017-05-17T01:25:29.535Z,1024.18
2017-05-17T01:26:10.018Z,1024.22
2017-05-17T01:26:50.537Z,1024.19
2017-05-17T01:27:31.008Z,1024.15
2017-05-17T01:28:11.579Z,1024.11
2017-05-17T01:28:52.073Z,1024.14
2017-05-17T01:29:32.558Z,1024.12
2017-05-17T01:30:13.024Z,1024.11
2017-05-17T01:30:53.510Z,1024.12
2017-05-17T01:31:33.987Z,1024.14
2017-05-17T01:32:14.498Z,1024.1
2017-05-17T01:32:54.980Z,1024.08
2017-05-17T01:33:35.544Z,1024.05
2017-05-17T01:34:15.941Z,1024.07
2017-05-17T01:34:56.400Z,1024.07
2017-05-17T01:35:36.899Z,1024.04
2017-05-17T01:36:17.448Z,1024.02
2017-05-17T01:36:57.868Z,1024.01
2017-05-17T01:37:38.402Z,1024.02
2017-05-17T01:38:18.900Z,1024.03
2017-05-17T01:38:59.479Z,1023.98
2017-05-17T01:39:39.905Z,1023.99
2017-05-17T01:40:20.387Z,1023.97
2017-05-17T01:41:00.903Z,1023.95
2017-05-17T01:41:41.393Z,1024
2017-05-17T01:42:21.896Z,1023.96
2017-05-17T01:43:02.501Z,1023.99
2017-05-17T01:43:42.983Z,1023.97
2017-05-17T01:44:23.596Z,1023.97
2017-05-17T01:45:04.046Z,1024.01
2017-05-17T01:45:44.593Z,1023.97
2017-05-17T01:46:25.076Z,1024.01
2017-05-17T01:47:05.653Z,1024.02
2017-05-17T01:47:46.075Z,1024.01
2017-05-17T01:48:26.581Z,1024
2017-05-17T01:49:07.037Z,1023.98
2017-05-17T01:49:47.543Z,1024.02
2017-05-17T01:50:28.056Z,1024
2017-05-17T01:51:08.512Z,1023.98
2017-05-17T01:51:49.030Z,1024.02
2017-05-17T01:52:29.494Z,1024
2017-05-17T01:53:09.997Z,1023.99
2017-05-17T01:53:50.470Z,1024.04
2017-05-17T01:54:30.925Z,1024.02
2017-05-17T01:55:11.429Z,1024.04
2017-05-17T01:55:51.907Z,1024.02
2017-05-17T01:56:32.355Z,1024.05
2017-05-17T01:57:13.785Z,1024.04
2017-05-17T01:57:54.259Z,1024.04
2017-05-17T01:58:34.743Z,1024.03
2017-05-17T01:59:15.379Z,1024.04
2017-05-17T01:59:55.875Z,1024.01
2017-05-17T02:00:36.357Z,1024
2017-05-17T02:01:16.946Z,1024.01
2017-05-17T02:01:57.304Z,1024.02
2017-05-17T02:02:37.828Z,1024.05
2017-05-17T02:03:18.948Z,1024.01
2017-05-17T02:03:59.496Z,1024
2017-05-17T02:04:39.943Z,1024.01
2017-05-17T02:05:20.414Z,1024.06
2017-05-17T02:06:00.857Z,1024.04
2017-05-17T02:06:41.342Z,1024.04
2017-05-17T02:07:21.847Z,1024.02
2017-05-17T02:08:02.350Z,1024.02
2017-05-17T02:08:42.814Z,1024.03
2017-05-17T02:09:23.301Z,1024
2017-05-17T02:10:03.808Z,1024.04
2017-05-17T02:10:44.330Z,1024.02
2017-05-17T02:11:24.768Z,1024.05
2017-05-17T02:12:05.309Z,1024.01
2017-05-17T02:12:46.568Z,1024.01
2017-05-17T02:13:27.069Z,1023.98
2017-05-17T02:14:07.534Z,1023.99
2017-05-17T02:14:47.989Z,1023.99
2017-05-17T02:15:28.552Z,1023.99
2017-05-17T02:16:08.993Z,1023.95
2017-05-17T02:16:49.456Z,1023.96
2017-05-17T02:17:29.915Z,1023.96
2017-05-17T02:18:10.431Z,1024.01
2017-05-17T02:18:50.875Z,1023.97
2017-05-17T02:19:31.419Z,1023.96
2017-05-17T02:20:11.961Z,1023.93
2017-05-17T02:20:52.429Z,1023.92
2017-05-17T02:21:32.868Z,1023.93
2017-05-17T02:22:13.374Z,1023.95
2017-05-17T02:22:53.839Z,1023.96
2017-05-17T02:23:34.354Z,1023.97
2017-05-17T02:24:14.808Z,1023.94
2017-05-17T02:24:55.352Z,1023.93
2017-05-17T02:25:35.827Z,1023.93
2017-05-17T02:26:16.351Z,1023.92
2017-05-17T02:26:57.626Z,1023.9
2017-05-17T02:27:38.131Z,1023.9
2017-05-17T02:28:18.617Z,1023.91
2017-05-17T02:28:59.079Z,1023.89
2017-05-17T02:29:39.586Z,1023.9
2017-05-17T02:30:20.069Z,1023.86
2017-05-17T02:31:00.577Z,1023.9
2017-05-17T02:31:41.038Z,1023.89
2017-05-17T02:32:21.594Z,1023.86
2017-05-17T02:33:02.072Z,1023.87
2017-05-17T02:33:42.571Z,1023.84
2017-05-17T02:34:23.017Z,1023.85
2017-05-17T02:35:04.384Z,1023.8
2017-05-17T02:35:45.000Z,1023.81
2017-05-17T02:36:25.472Z,1023.81
2017-05-17T02:37:05.973Z,1023.81
2017-05-17T02:37:46.426Z,1023.82
2017-05-17T02:38:26.958Z,1023.8
2017-05-17T02:39:07.429Z,1023.8
2017-05-17T02:39:47.895Z,1023.84
2017-05-17T02:40:28.399Z,1023.83
2017-05-17T02:41:08.839Z,1023.79
2017-05-17T02:41:50.047Z,1023.87
2017-05-17T02:42:30.545Z,1023.82
2017-05-17T02:43:11.032Z,1023.87
2017-05-17T02:43:51.552Z,1023.84
2017-05-17T02:44:32.068Z,1023.83
2017-05-17T02:45:12.576Z,1023.82
2017-05-17T02:45:52.988Z,1023.83
2017-05-17T02:46:33.514Z,1023.84
2017-05-17T02:47:14.010Z,1023.83
2017-05-17T02:47:54.527Z,1023.81
2017-05-17T02:48:35.031Z,1023.79
2017-05-17T02:49:15.473Z,1023.79
2017-05-17T02:49:55.994Z,1023.82
2017-05-17T02:50:36.471Z,1023.81
2017-05-17T02:51:16.930Z,1023.79
2017-05-17T02:51:57.419Z,1023.81
2017-05-17T02:52:37.928Z,1023.77
2017-05-17T02:53:18.464Z,1023.79
2017-05-17T02:53:58.920Z,1023.78
2017-05-17T02:54:39.396Z,1023.77
2017-05-17T02:55:20.523Z,1023.75
2017-05-17T02:56:00.951Z,1023.74
2017-05-17T02:56:41.436Z,1023.77
2017-05-17T02:57:21.949Z,1023.78
2017-05-17T02:58:02.386Z,1023.77
2017-05-17T02:58:42.934Z,1023.74
2017-05-17T02:59:23.391Z,1023.76
2017-05-17T03:00:03.934Z,1023.74
2017-05-17T03:00:44.434Z,1023.77
2017-05-17T03:01:24.888Z,1023.76
2017-05-17T03:02:05.383Z,1023.78
2017-05-17T03:02:45.872Z,1023.79
2017-05-17T03:03:26.381Z,1023.78
2017-05-17T03:04:06.863Z,1023.79
2017-05-17T03:04:47.403Z,1023.76
2017-05-17T03:05:27.894Z,1023.79
2017-05-17T03:06:08.380Z,1023.7
2017-05-17T03:06:48.909Z,1023.77
2017-05-17T03:07:29.385Z,1023.74
2017-05-17T03:08:09.874Z,1023.71
2017-05-17T03:08:50.359Z,1023.7
2017-05-17T03:09:30.819Z,1023.71
2017-05-17T03:10:11.323Z,1023.74
2017-05-17T03:10:51.780Z,1023.7
2017-05-17T03:11:32.265Z,1023.74
2017-05-17T03:12:13.315Z,1023.73
2017-05-17T03:12:53.796Z,1023.74
2017-05-17T03:13:34.295Z,1023.71
2017-05-17T03:14:14.752Z,1023.73
2017-05-17T03:14:55.250Z,1023.74
2017-05-17T03:15:35.683Z,1023.72
2017-05-17T03:16:16.157Z,1023.78
2017-05-17T03:16:56.721Z,1023.68
2017-05-17T03:17:37.139Z,1023.71
2017-05-17T03:18:17.613Z,1023.68
2017-05-17T03:18:58.117Z,1023.72
2017-05-17T03:19:38.616Z,1023.69
2017-05-17T03:20:19.090Z,1023.69
2017-05-17T03:20:59.591Z,1023.69
2017-05-17T03:21:40.085Z,1023.69
2017-05-17T03:22:20.569Z,1023.68
2017-05-17T03:23:01.060Z,1023.72
2017-05-17T03:23:41.518Z,1023.67
2017-05-17T03:24:22.052Z,1023.71
2017-05-17T03:25:02.607Z,1023.71
2017-05-17T03:25:43.034Z,1023.69
2017-05-17T03:26:23.509Z,1023.68
2017-05-17T03:27:03.978Z,1023.67
2017-05-17T03:27:44.455Z,1023.68
2017-05-17T03:28:24.962Z,1023.7
2017-05-17T03:29:05.421Z,1023.66
2017-05-17T03:29:45.944Z,1023.66
2017-05-17T03:30:26.410Z,1023.64
2017-05-17T03:31:06.869Z,1023.67
2017-05-17T03:31:47.429Z,1023.64
2017-05-17T03:32:27.912Z,1023.65
2017-05-17T03:33:08.449Z,1023.6
2017-05-17T03:33:48.951Z,1023.64
2017-05-17T03:34:29.403Z,1023.62
2017-05-17T03:35:09.913Z,1023.62
2017-05-17T03:35:50.426Z,1023.64
2017-05-17T03:36:30.920Z,1023.67
2017-05-17T03:37:11.389Z,1023.63
2017-05-17T03:37:51.892Z,1023.66
2017-05-17T03:38:32.435Z,1023.61
2017-05-17T03:39:13.913Z,1023.62
2017-05-17T03:39:54.380Z,1023.63
2017-05-17T03:40:34.832Z,1023.62
2017-05-17T03:41:15.399Z,1023.64
2017-05-17T03:41:55.851Z,1023.61
2017-05-17T03:42:38.979Z,1023.58
2017-05-17T03:43:19.446Z,1023.58
2017-05-17T03:43:59.939Z,1023.58
2017-05-17T03:44:40.435Z,1023.56
2017-05-17T03:45:21.914Z,1023.55
2017-05-17T03:46:02.404Z,1023.55
2017-05-17T03:46:42.945Z,1023.56
2017-05-17T03:47:23.501Z,1023.55
2017-05-17T03:48:03.978Z,1023.53
2017-05-17T03:48:44.467Z,1023.55
2017-05-17T03:49:24.952Z,1023.59
2017-05-17T03:50:05.512Z,1023.51
2017-05-17T03:50:45.903Z,1023.57
2017-05-17T03:51:26.408Z,1023.57
2017-05-17T03:52:06.863Z,1023.57
2017-05-17T03:52:47.493Z,1023.52
2017-05-17T03:53:27.963Z,1023.57
2017-05-17T03:54:08.459Z,1023.61
2017-05-17T03:54:48.941Z,1023.54
2017-05-17T03:55:30.080Z,1023.55
2017-05-17T03:56:10.601Z,1023.58
2017-05-17T03:56:51.054Z,1023.61
2017-05-17T03:57:31.552Z,1023.59
2017-05-17T03:58:12.065Z,1023.63
2017-05-17T03:58:52.521Z,1023.61
2017-05-17T03:59:32.999Z,1023.57
2017-05-17T04:00:13.495Z,1023.59
2017-05-17T04:00:53.938Z,1023.58
2017-05-17T04:01:34.482Z,1023.58
2017-05-17T04:02:14.910Z,1023.6
2017-05-17T04:02:55.427Z,1023.62
2017-05-17T04:03:35.971Z,1023.58
2017-05-17T04:04:16.392Z,1023.57
2017-05-17T04:04:56.994Z,1023.59
2017-05-17T04:05:37.490Z,1023.58
2017-05-17T04:06:17.960Z,1023.58
2017-05-17T04:06:58.411Z,1023.59
2017-05-17T04:07:38.862Z,1023.61
2017-05-17T04:08:19.370Z,1023.63
2017-05-17T04:08:59.869Z,1023.59
2017-05-17T04:09:40.316Z,1023.64
2017-05-17T04:10:20.816Z,1023.59
2017-05-17T04:11:01.354Z,1023.63
2017-05-17T04:11:41.835Z,1023.61
2017-05-17T04:12:22.336Z,1023.64
2017-05-17T04:13:03.593Z,1023.62
2017-05-17T04:13:44.045Z,1023.64
2017-05-17T04:14:26.491Z,1023.61
2017-05-17T04:15:08.736Z,1023.63
2017-05-17T04:15:49.220Z,1023.59
2017-05-17T04:16:30.056Z,1023.61
2017-05-17T04:17:11.004Z,1023.6
2017-05-17T04:17:51.595Z,1023.56
2017-05-17T04:18:32.002Z,1023.6
2017-05-17T04:19:13.046Z,1023.6
2017-05-17T04:19:53.930Z,1023.6
2017-05-17T04:20:35.138Z,1023.58
2017-05-17T04:21:15.664Z,1023.58
2017-05-17T04:21:56.271Z,1023.59
2017-05-17T04:22:37.691Z,1023.57
2017-05-17T04:23:18.983Z,1023.59
2017-05-17T04:23:59.628Z,1023.56
2017-05-17T04:24:41.658Z,1023.59
2017-05-17T04:25:22.237Z,1023.59
2017-05-17T04:26:03.558Z,1023.58
2017-05-17T04:26:45.186Z,1023.57
2017-05-17T04:27:28.672Z,1023.6
2017-05-17T04:28:10.162Z,1023.58
2017-05-17T04:28:50.693Z,1023.58
2017-05-17T04:29:33.206Z,1023.58
2017-05-17T04:30:16.157Z,1023.58
2017-05-17T04:30:58.404Z,1023.56
2017-05-17T04:31:40.456Z,1023.57
2017-05-17T04:32:21.980Z,1023.57
2017-05-17T04:33:03.213Z,1023.6
2017-05-17T04:33:43.735Z,1023.59
2017-05-17T04:34:24.232Z,1023.6
2017-05-17T04:35:04.767Z,1023.59
2017-05-17T04:35:45.262Z,1023.54
2017-05-17T04:36:26.761Z,1023.55
2017-05-17T04:37:07.300Z,1023.58
2017-05-17T04:37:47.859Z,1023.55
2017-05-17T04:38:28.363Z,1023.57
2017-05-17T04:39:10.781Z,1023.56
2017-05-17T04:39:51.911Z,1023.57
2017-05-17T04:40:32.435Z,1023.56
2017-05-17T04:41:14.561Z,1023.56
2017-05-17T04:41:56.074Z,1023.52
2017-05-17T04:42:36.576Z,1023.55
2017-05-17T04:43:17.179Z,1023.54
2017-05-17T04:43:57.646Z,1023.58
2017-05-17T04:44:38.144Z,1023.54
2017-05-17T04:45:18.693Z,1023.6
2017-05-17T04:46:01.117Z,1023.57
2017-05-17T04:46:41.631Z,1023.55
2017-05-17T04:47:24.109Z,1023.55
2017-05-17T04:48:05.631Z,1023.59
2017-05-17T04:48:47.873Z,1023.57
2017-05-17T04:49:28.364Z,1023.62
2017-05-17T04:50:08.847Z,1023.61
2017-05-17T04:50:50.986Z,1023.61
2017-05-17T04:51:31.513Z,1023.6
2017-05-17T04:52:12.094Z,1023.58
2017-05-17T04:52:54.540Z,1023.58
2017-05-17T04:53:36.069Z,1023.59
2017-05-17T04:54:16.627Z,1023.56
2017-05-17T04:54:57.189Z,1023.54
2017-05-17T04:55:37.712Z,1023.54
2017-05-17T04:57:41.050Z,1023.54
2017-05-17T04:58:28.441Z,1023.51
2017-05-17T04:59:17.508Z,1023.56
2017-05-17T05:00:06.025Z,1023.49
2017-05-17T05:00:54.398Z,1023.56
2017-05-17T05:01:43.264Z,1023.5
2017-05-17T05:02:33.033Z,1023.52
2017-05-17T05:03:21.560Z,1023.53
2017-05-17T05:04:10.408Z,1023.49
2017-05-17T05:04:58.677Z,1023.53
2017-05-17T05:05:47.373Z,1023.49
2017-05-17T05:06:36.146Z,1023.49
2017-05-17T05:07:24.877Z,1023.47
2017-05-17T05:08:13.718Z,1023.47
2017-05-17T05:09:02.096Z,1023.44
2017-05-17T05:09:50.725Z,1023.48
2017-05-17T05:10:39.466Z,1023.47
2017-05-17T05:11:27.926Z,1023.46
2017-05-17T05:12:16.946Z,1023.45
2017-05-17T05:13:05.557Z,1023.42
2017-05-17T05:13:54.248Z,1023.42
2017-05-17T05:14:43.233Z,1023.41
2017-05-17T05:15:31.479Z,1023.41
2017-05-17T05:16:19.998Z,1023.44
2017-05-17T05:17:08.954Z,1023.45
2017-05-17T05:17:57.248Z,1023.45
2017-05-17T05:18:46.235Z,1023.47
2017-05-17T05:19:35.498Z,1023.43
2017-05-17T05:20:23.526Z,1023.42
2017-05-17T05:21:12.270Z,1023.42
2017-05-17T05:22:00.927Z,1023.42
2017-05-17T05:22:50.113Z,1023.45
2017-05-17T05:23:38.710Z,1023.42
2017-05-17T05:24:26.967Z,1023.43
2017-05-17T05:25:15.355Z,1023.42
2017-05-17T05:26:04.219Z,1023.45
2017-05-17T05:26:53.209Z,1023.41
2017-05-17T05:27:41.435Z,1023.43
2017-05-17T05:28:30.701Z,1023.42
2017-05-17T05:29:19.937Z,1023.41
2017-05-17T05:30:08.901Z,1023.4
2017-05-17T05:30:57.513Z,1023.39
2017-05-17T05:31:46.538Z,1023.42
2017-05-17T05:32:35.535Z,1023.4
2017-05-17T05:33:24.565Z,1023.43
2017-05-17T05:34:14.767Z,1023.4
2017-05-17T05:35:03.609Z,1023.42
2017-05-17T05:35:52.225Z,1023.4
2017-05-17T05:36:42.464Z,1023.42
2017-05-17T05:39:40.989Z,1023.43
2017-05-17T05:40:30.362Z,1023.41
2017-05-17T05:41:20.415Z,1023.4
2017-05-17T05:42:10.709Z,1023.41
2017-05-17T05:44:41.768Z,1023.42
2017-05-17T05:45:28.335Z,1023.38
2017-05-17T05:46:16.559Z,1023.34
2017-05-17T05:47:02.914Z,1023.38
2017-05-17T05:47:43.165Z,1023.38
2017-05-17T05:48:23.624Z,1023.35
2017-05-17T05:49:04.163Z,1023.35
2017-05-17T05:49:44.620Z,1023.36
2017-05-17T05:50:25.081Z,1023.34
2017-05-17T05:52:43.923Z,1023.37
2017-05-17T05:53:30.774Z,1023.38
2017-05-17T05:54:13.862Z,1023.4
2017-05-17T05:54:54.387Z,1023.39
2017-05-17T05:55:34.864Z,1023.41
2017-05-17T05:56:15.374Z,1023.38
2017-05-17T05:56:55.846Z,1023.4
2017-05-17T05:57:36.371Z,1023.4
2017-05-17T05:58:16.885Z,1023.4
2017-05-17T05:58:57.378Z,1023.4
2017-05-17T05:59:37.832Z,1023.38
2017-05-17T06:00:18.304Z,1023.4
2017-05-17T06:00:58.774Z,1023.39
2017-05-17T06:01:39.332Z,1023.38
2017-05-17T06:02:19.723Z,1023.42
2017-05-17T06:03:00.217Z,1023.36
2017-05-17T06:03:40.755Z,1023.41
2017-05-17T06:04:21.204Z,1023.44
2017-05-17T06:05:01.695Z,1023.43
2017-05-17T06:05:42.191Z,1023.39
2017-05-17T06:06:22.676Z,1023.45
2017-05-17T06:07:03.303Z,1023.41
2017-05-17T06:07:43.827Z,1023.38
2017-05-17T06:08:24.318Z,1023.41
2017-05-17T06:09:04.829Z,1023.43
2017-05-17T06:09:45.307Z,1023.44
2017-05-17T06:10:25.791Z,1023.41
2017-05-17T06:11:06.322Z,1023.38
2017-05-17T06:11:46.796Z,1023.41
2017-05-17T06:12:27.285Z,1023.43
2017-05-17T06:13:07.770Z,1023.42
2017-05-17T06:13:48.253Z,1023.35
2017-05-17T06:14:28.725Z,1023.38
2017-05-17T06:15:09.212Z,1023.31
2017-05-17T06:15:49.747Z,1023.33
2017-05-17T06:16:30.237Z,1023.34
2017-05-17T06:17:10.716Z,1023.35
2017-05-17T06:17:51.271Z,1023.34
2017-05-17T06:18:31.980Z,1023.34
2017-05-17T06:19:12.399Z,1023.36
2017-05-17T06:19:52.941Z,1023.34
2017-05-17T06:20:33.454Z,1023.36
2017-05-17T06:21:13.901Z,1023.33
2017-05-17T06:21:54.506Z,1023.36
2017-05-17T06:22:34.967Z,1023.31
2017-05-17T06:23:15.452Z,1023.33
2017-05-17T06:23:56.830Z,1023.35
2017-05-17T06:24:38.152Z,1023.35
2017-05-17T06:25:18.628Z,1023.35
2017-05-17T06:25:59.142Z,1023.35
2017-05-17T06:26:39.724Z,1023.3
2017-05-17T06:27:20.205Z,1023.33
2017-05-17T06:28:00.678Z,1023.38
2017-05-17T06:28:41.174Z,1023.36
2017-05-17T06:29:22.590Z,1023.37
2017-05-17T06:30:03.760Z,1023.37
2017-05-17T06:30:44.267Z,1023.33
2017-05-17T06:31:24.782Z,1023.34
2017-05-17T06:32:05.261Z,1023.34
2017-05-17T06:32:45.775Z,1023.36
2017-05-17T06:33:26.260Z,1023.36
2017-05-17T06:34:06.809Z,1023.37
2017-05-17T06:34:47.301Z,1023.35
2017-05-17T06:35:29.786Z,1023.34
2017-05-17T06:36:10.305Z,1023.35
2017-05-17T06:36:50.770Z,1023.39
2017-05-17T06:37:31.377Z,1023.39
2017-05-17T06:38:11.886Z,1023.42
2017-05-17T06:38:52.619Z,1023.42
2017-05-17T06:39:33.829Z,1023.42
2017-05-17T06:40:15.991Z,1023.44
2017-05-17T06:40:56.466Z,1023.44
2017-05-17T06:41:37.002Z,1023.47
2017-05-17T06:42:17.410Z,1023.45
2017-05-17T06:42:58.879Z,1023.49
2017-05-17T06:43:40.177Z,1023.48
2017-05-17T06:44:20.625Z,1023.52
2017-05-17T06:45:01.121Z,1023.52
2017-05-17T06:45:41.619Z,1023.51
2017-05-17T06:46:22.131Z,1023.54
2017-05-17T06:47:03.582Z,1023.54
2017-05-17T06:47:44.202Z,1023.55
2017-05-17T06:48:24.561Z,1023.51
2017-05-17T06:49:05.059Z,1023.52
2017-05-17T06:49:45.560Z,1023.48
2017-05-17T06:50:26.111Z,1023.52
2017-05-17T06:51:06.599Z,1023.52
2017-05-17T06:51:47.108Z,1023.54
2017-05-17T06:52:27.623Z,1023.54
2017-05-17T06:53:08.140Z,1023.55
2017-05-17T06:53:48.706Z,1023.52
2017-05-17T06:54:30.115Z,1023.53
2017-05-17T06:55:11.511Z,1023.52
2017-05-17T06:56:02.868Z,1023.51
2017-05-17T06:56:44.633Z,1023.51
2017-05-17T06:57:25.290Z,1023.53
2017-05-17T06:58:05.767Z,1023.48
2017-05-17T06:58:46.965Z,1023.49
2017-05-17T06:59:28.499Z,1023.52
2017-05-17T07:00:10.842Z,1023.52
2017-05-17T07:00:53.163Z,1023.47
2017-05-17T07:01:35.059Z,1023.51
2017-05-17T07:02:15.525Z,1023.53
2017-05-17T07:02:56.029Z,1023.53
2017-05-17T07:03:38.553Z,1023.53
2017-05-17T07:04:21.025Z,1023.52
2017-05-17T07:05:01.560Z,1023.5
2017-05-17T07:05:46.894Z,1023.48
2017-05-17T07:06:37.888Z,1023.54
2017-05-17T07:07:19.940Z,1023.51
2017-05-17T07:08:03.901Z,1023.52
2017-05-17T07:08:45.360Z,1023.55
2017-05-17T07:09:28.692Z,1023.53
2017-05-17T07:10:19.601Z,1023.56
2017-05-17T07:11:06.034Z,1023.51
2017-05-17T07:11:51.560Z,1023.51
2017-05-17T07:12:37.381Z,1023.53
2017-05-17T07:13:21.785Z,1023.55
2017-05-17T07:14:04.333Z,1023.56
2017-05-17T07:14:50.488Z,1023.56
2017-05-17T07:15:34.950Z,1023.59
2017-05-17T07:16:19.279Z,1023.57
2017-05-17T07:17:00.269Z,1023.57
2017-05-17T07:17:40.799Z,1023.53
2017-05-17T07:18:22.307Z,1023.55
2017-05-17T07:19:03.500Z,1023.52
2017-05-17T07:19:48.329Z,1023.52
2017-05-17T07:20:30.734Z,1023.53
2017-05-17T07:21:13.117Z,1023.51
2017-05-17T07:21:54.483Z,1023.52
2017-05-17T07:22:35.841Z,1023.5
2017-05-17T07:23:16.367Z,1023.5
2017-05-17T07:23:56.877Z,1023.5
2017-05-17T07:24:37.979Z,1023.51
2017-05-17T07:25:19.521Z,1023.51
2017-05-17T07:26:00.660Z,1023.49
2017-05-17T07:26:41.991Z,1023.45
2017-05-17T07:27:22.460Z,1023.47
2017-05-17T07:28:03.839Z,1023.48
2017-05-17T07:28:52.014Z,1023.46
2017-05-17T07:29:34.058Z,1023.47
2017-05-17T07:30:15.995Z,1023.45
2017-05-17T07:30:56.542Z,1023.46
2017-05-17T07:31:37.190Z,1023.46
2017-05-17T07:32:18.609Z,1023.47
2017-05-17T07:32:59.661Z,1023.45
2017-05-17T07:33:40.754Z,1023.48
2017-05-17T07:34:22.002Z,1023.45
2017-05-17T07:35:02.471Z,1023.47
2017-05-17T07:35:42.956Z,1023.47
2017-05-17T07:36:23.442Z,1023.45
2017-05-17T07:37:03.941Z,1023.49
2017-05-17T07:37:44.450Z,1023.46
2017-05-17T07:38:24.988Z,1023.47
2017-05-17T07:39:05.481Z,1023.48
2017-05-17T07:39:45.991Z,1023.49
2017-05-17T07:40:26.449Z,1023.45
2017-05-17T07:41:07.016Z,1023.45
2017-05-17T07:41:47.467Z,1023.45
2017-05-17T07:42:28.075Z,1023.43
2017-05-17T07:43:08.655Z,1023.44
2017-05-17T07:43:49.182Z,1023.42
2017-05-17T07:44:29.671Z,1023.41
2017-05-17T07:45:10.213Z,1023.41
2017-05-17T07:45:50.761Z,1023.4
2017-05-17T07:46:31.305Z,1023.38
2017-05-17T07:47:11.836Z,1023.38
2017-05-17T07:47:52.345Z,1023.4
2017-05-17T07:48:32.842Z,1023.42
2017-05-17T07:49:14.555Z,1023.43
2017-05-17T07:49:55.053Z,1023.42
2017-05-17T07:50:35.514Z,1023.43
2017-05-17T07:51:16.059Z,1023.4
2017-05-17T07:51:56.510Z,1023.38
2017-05-17T07:52:37.384Z,1023.41
2017-05-17T07:53:18.076Z,1023.45
2017-05-17T07:55:22.320Z,1023.43
2017-05-17T07:58:08.393Z,1023.4
2017-05-17T07:58:55.349Z,1023.39
2017-05-17T07:59:46.757Z,1023.38
2017-05-17T08:00:38.674Z,1023.41
2017-05-17T08:01:27.092Z,1023.39
2017-05-17T08:02:15.912Z,1023.4
2017-05-17T08:03:03.942Z,1023.44
2017-05-17T08:03:47.494Z,1023.44
2017-05-17T08:04:28.008Z,1023.46
2017-05-17T08:05:08.880Z,1023.47
2017-05-17T08:05:50.114Z,1023.47
2017-05-17T08:06:30.563Z,1023.46
2017-05-17T08:07:11.326Z,1023.47
2017-05-17T08:07:51.721Z,1023.51
2017-05-17T08:08:32.494Z,1023.48
2017-05-17T08:09:12.967Z,1023.5
2017-05-17T08:09:53.552Z,1023.45
2017-05-17T08:10:34.001Z,1023.49
2017-05-17T08:11:14.456Z,1023.53
2017-05-17T08:11:55.114Z,1023.49
2017-05-17T08:12:35.589Z,1023.51
2017-05-17T08:13:16.213Z,1023.51
2017-05-17T08:13:56.860Z,1023.49
2017-05-17T08:14:37.357Z,1023.5
2017-05-17T08:15:17.819Z,1023.51
2017-05-17T08:15:58.283Z,1023.55
2017-05-17T08:16:38.757Z,1023.54
2017-05-17T08:17:19.343Z,1023.55
2017-05-17T08:17:59.900Z,1023.53
2017-05-17T08:18:40.651Z,1023.52
2017-05-17T08:19:21.119Z,1023.54
2017-05-17T08:20:02.030Z,1023.55
2017-05-17T08:20:42.591Z,1023.54
2017-05-17T08:21:23.066Z,1023.54
2017-05-17T08:22:03.593Z,1023.51
2017-05-17T08:22:44.128Z,1023.56
2017-05-17T08:23:24.680Z,1023.55
2017-05-17T08:24:05.501Z,1023.59
2017-05-17T08:24:45.995Z,1023.53
2017-05-17T08:25:26.517Z,1023.54
2017-05-17T08:26:07.111Z,1023.54
2017-05-17T08:26:47.602Z,1023.53
2017-05-17T08:29:22.292Z,1023.48
2017-05-17T08:30:10.340Z,1023.48
2017-05-17T08:30:59.600Z,1023.45
2017-05-17T08:31:47.762Z,1023.49
2017-05-17T08:32:36.938Z,1023.47
2017-05-17T08:33:26.382Z,1023.44
2017-05-17T08:35:31.069Z,1023.45
2017-05-17T08:36:19.979Z,1023.4
2017-05-17T08:37:08.797Z,1023.39
2017-05-17T08:37:57.559Z,1023.4
2017-05-17T08:38:46.957Z,1023.38